Time;durP1;ratioP1;P1;durP2;ratioP2;P2;SDS_P1;SDS_P2;PMS_P1;PMS_P2;Temp;Humidity;BMP_temperature;BMP_pressure;BME280_temperature;BME280_humidity;BME280_pressure;Samples;Min_cycle;Max_cycle;Signal;HPM_P1;HPM_P2
2023/03/01 00:00:41;;;;;;;21.77;14.35;;;;;;;;;;4922759;28;20051;-74
2023/03/01 00:03:07;;;;;;;31.85;14.50;;;;;;;;;;4919669;28;20042;-74
2023/03/01 00:05:33;;;;;;;26.00;15.18;;;;;;;;;;4935090;28;20047;-75
2023/03/01 00:07:59;;;;;;;26.40;16.50;;;;;;;;;;4921854;28;20039;-75
2023/03/01 00:10:26;;;;;;;34.00;17.63;;;;;;;;;;4925221;28;20046;-74
2023/03/01 00:12:52;;;;;;;26.23;15.60;;;;;;;;;;4923224;28;20058;-75
2023/03/01 00:15:18;;;;;;;24.95;16.10;;;;;;;;;;4923437;28;20047;-75
2023/03/01 00:17:44;;;;;;;25.70;14.23;;;;;;;;;;4925286;28;20110;-74
2023/03/01 00:20:11;;;;;;;26.40;16.25;;;;;;;;;;4925522;28;20051;-74
2023/03/01 00:22:37;;;;;;;130.40;18.80;;;;;;;;;;4925614;28;20656;-75
2023/03/01 00:25:04;;;;;;;109.40;19.95;;;;;;;;;;4923952;28;20480;-75
2023/03/01 00:27:30;;;;;;;158.75;17.80;;;;;;;;;;4921850;28;20047;-74
2023/03/01 00:29:56;;;;;;;113.15;18.67;;;;;;;;;;4922519;28;20086;-74
2023/03/01 00:32:22;;;;;;;141.48;19.17;;;;;;;;;;4922802;28;20043;-75
2023/03/01 00:34:54;;;;;;;33.40;19.65;;;;;;;;;;4921954;28;20141;-75
2023/03/01 00:37:23;;;;;;;25.70;16.10;;;;;;;;;;4938620;28;20088;-75
2023/03/01 00:39:49;;;;;;;27.48;17.13;;;;;;;;;;4920636;28;20049;-75
2023/03/01 00:42:15;;;;;;;28.88;17.15;;;;;;;;;;4924926;28;20051;-75
2023/03/01 00:44:42;;;;;;;28.83;15.82;;;;;;;;;;4912826;28;20062;-75
2023/03/01 00:47:08;;;;;;;30.75;16.98;;;;;;;;;;4924697;28;20050;-75
2023/03/01 00:49:34;;;;;;;26.20;16.52;;;;;;;;;;4905681;28;20648;-75
2023/03/01 00:52:00;;;;;;;25.77;16.38;;;;;;;;;;4928953;28;20082;-75
2023/03/01 00:54:26;;;;;;;28.05;16.52;;;;;;;;;;4924380;28;20055;-75
2023/03/01 00:56:52;;;;;;;27.08;17.20;;;;;;;;;;4922414;28;20595;-75
2023/03/01 00:59:18;;;;;;;25.90;15.63;;;;;;;;;;4907733;28;20051;-75
2023/03/01 01:01:44;;;;;;;25.48;15.88;;;;;;;;;;4924511;28;21718;-75
2023/03/01 01:04:12;;;;;;;21.70;14.23;;;;;;;;;;4922384;28;20058;-76
2023/03/01 01:06:42;;;;;;;22.88;14.38;;;;;;;;;;4907444;28;20142;-75
2023/03/01 01:09:08;;;;;;;20.20;14.05;;;;;;;;;;4922680;28;20072;-75
2023/03/01 01:11:37;;;;;;;21.50;14.52;;;;;;;;;;4921127;28;20166;-74
2023/03/01 01:14:03;;;;;;;25.80;15.45;;;;;;;;;;4905876;28;20050;-75
2023/03/01 01:16:30;;;;;;;30.10;16.35;;;;;;;;;;4920683;28;20065;-74
2023/03/01 01:18:56;;;;;;;28.52;15.95;;;;;;;;;;4917642;28;20047;-75
2023/03/01 01:21:23;;;;;;;30.13;15.00;;;;;;;;;;4922982;28;20161;-75
2023/03/01 01:23:49;;;;;;;24.15;13.85;;;;;;;;;;4908822;28;20046;-75
2023/03/01 01:26:16;;;;;;;26.20;14.77;;;;;;;;;;4918262;28;20057;-74
2023/03/01 01:28:43;;;;;;;25.52;14.25;;;;;;;;;;4932663;28;20494;-75
2023/03/01 01:31:09;;;;;;;19.42;12.65;;;;;;;;;;4912309;28;20042;-74
2023/03/01 01:33:35;;;;;;;21.33;13.27;;;;;;;;;;4925148;28;20044;-75
2023/03/01 01:36:01;;;;;;;75.43;13.90;;;;;;;;;;4908780;28;20658;-74
2023/03/01 01:38:27;;;;;;;28.75;11.27;;;;;;;;;;4921440;28;20088;-75
2023/03/01 01:40:53;;;;;;;13.15;9.75;;;;;;;;;;4909600;28;20400;-75
2023/03/01 01:43:30;;;;;;;18.00;12.13;;;;;;;;;;4920557;28;20084;-75
2023/03/01 01:46:05;;;;;;;31.73;12.27;;;;;;;;;;4922211;28;20039;-73
2023/03/01 01:48:53;;;;;;;31.15;13.18;;;;;;;;;;4921237;28;20058;-74
2023/03/01 01:51:22;;;;;;;21.25;13.60;;;;;;;;;;4922169;28;20050;-74
2023/03/01 01:53:51;;;;;;;23.02;14.13;;;;;;;;;;4924232;28;20097;-74
2023/03/01 01:56:19;;;;;;;22.70;14.05;;;;;;;;;;4927637;28;20063;-74
2023/03/01 01:58:47;;;;;;;22.45;13.93;;;;;;;;;;4921056;28;20050;-74
2023/03/01 02:01:13;;;;;;;22.10;14.35;;;;;;;;;;4922757;28;20211;-74
2023/03/01 02:03:41;;;;;;;21.08;12.95;;;;;;;;;;4907742;28;20050;-74
2023/03/01 02:06:10;;;;;;;21.73;13.65;;;;;;;;;;4907870;28;20096;-74
2023/03/01 02:08:38;;;;;;;26.50;14.13;;;;;;;;;;4922344;28;20051;-74
2023/03/01 02:11:04;;;;;;;21.42;13.25;;;;;;;;;;4927272;28;20054;-74
2023/03/01 02:13:31;;;;;;;22.13;13.88;;;;;;;;;;4913231;28;20826;-75
2023/03/01 02:15:57;;;;;;;17.60;11.70;;;;;;;;;;4922243;28;20058;-75
2023/03/01 02:18:24;;;;;;;19.48;11.70;;;;;;;;;;4905696;28;20043;-75
2023/03/01 02:20:50;;;;;;;20.13;13.02;;;;;;;;;;4920138;28;20177;-75
2023/03/01 02:23:16;;;;;;;17.35;10.98;;;;;;;;;;4923738;28;20988;-75
2023/03/01 02:26:05;;;;;;;17.92;10.90;;;;;;;;;;4921519;28;20047;-75
2023/03/01 02:28:33;;;;;;;17.33;10.43;;;;;;;;;;4921537;28;20117;-75
2023/03/01 02:33:44;;;;;;;14.15;9.80;;;;;;;;;;4919497;28;20142;-75
2023/03/01 02:36:13;;;;;;;14.60;10.32;;;;;;;;;;4922963;28;20034;-75
2023/03/01 02:38:40;;;;;;;15.85;11.02;;;;;;;;;;4906448;28;20046;-75
2023/03/01 02:41:06;;;;;;;17.75;10.25;;;;;;;;;;4937613;28;20096;-75
2023/03/01 02:43:33;;;;;;;16.52;10.52;;;;;;;;;;4922491;28;20047;-75
2023/03/01 02:46:03;;;;;;;14.93;10.27;;;;;;;;;;4912767;28;20043;-75
2023/03/01 02:48:39;;;;;;;15.88;10.57;;;;;;;;;;4904700;28;20094;-75
2023/03/01 02:51:07;;;;;;;17.15;10.43;;;;;;;;;;4906921;28;20042;-75
2023/03/01 02:53:40;;;;;;;19.13;9.88;;;;;;;;;;4917813;28;20061;-75
2023/03/01 02:56:12;;;;;;;16.60;10.05;;;;;;;;;;4906392;28;21915;-75
2023/03/01 02:58:47;;;;;;;17.33;10.68;;;;;;;;;;4917868;28;20046;-75
2023/03/01 03:01:15;;;;;;;15.82;10.40;;;;;;;;;;4918807;28;20390;-75
2023/03/01 03:03:42;;;;;;;15.20;10.35;;;;;;;;;;4920608;28;20127;-75
2023/03/01 03:06:09;;;;;;;13.07;8.77;;;;;;;;;;4906726;28;20046;-75
2023/03/01 03:08:35;;;;;;;11.80;8.82;;;;;;;;;;4902759;28;20472;-75
2023/03/01 03:11:01;;;;;;;13.30;8.55;;;;;;;;;;4906109;28;20122;-75
2023/03/01 03:13:28;;;;;;;17.95;11.10;;;;;;;;;;4915553;28;20597;-75
2023/03/01 03:15:55;;;;;;;13.98;9.82;;;;;;;;;;4931991;28;21767;-75
2023/03/01 03:18:22;;;;;;;14.63;10.30;;;;;;;;;;4923000;28;20496;-78
2023/03/01 03:20:52;;;;;;;15.75;10.82;;;;;;;;;;4917838;28;20050;-78
2023/03/01 03:23:19;;;;;;;46.45;10.50;;;;;;;;;;4929008;28;20054;-78
2023/03/01 03:25:48;;;;;;;86.32;8.98;;;;;;;;;;4918226;28;20126;-78
2023/03/01 03:28:15;;;;;;;17.23;7.18;;;;;;;;;;4946162;28;20538;-78
2023/03/01 03:30:42;;;;;;;36.08;7.57;;;;;;;;;;4927685;28;20082;-78
2023/03/01 03:33:09;;;;;;;16.30;7.28;;;;;;;;;;4912593;28;20054;-78
2023/03/01 03:35:39;;;;;;;6.22;5.15;;;;;;;;;;4926117;28;20042;-77
2023/03/01 03:38:09;;;;;;;9.52;5.38;;;;;;;;;;4930895;28;20512;-77
2023/03/01 03:40:39;;;;;;;10.60;5.57;;;;;;;;;;4924164;28;20042;-77
2023/03/01 03:43:07;;;;;;;8.88;7.03;;;;;;;;;;4915134;28;20093;-77
2023/03/01 03:45:34;;;;;;;8.40;6.85;;;;;;;;;;4924838;28;20043;-77
2023/03/01 03:48:01;;;;;;;8.68;6.85;;;;;;;;;;4944572;28;20032;-78
2023/03/01 03:50:27;;;;;;;10.50;7.53;;;;;;;;;;4932391;28;20047;-78
2023/03/01 03:52:53;;;;;;;9.52;7.38;;;;;;;;;;4906529;28;20070;-78
2023/03/01 03:55:19;;;;;;;10.15;7.35;;;;;;;;;;4941413;28;20055;-78
2023/03/01 03:57:53;;;;;;;12.00;7.65;;;;;;;;;;4938927;28;20049;-78
2023/03/01 04:00:19;;;;;;;;;;;;;;;;;;4918367;28;20043;-77
2023/03/01 04:02:46;;;;;;;13.18;9.00;;;;;;;;;;4934745;28;20342;-77
2023/03/01 04:05:14;;;;;;;15.98;10.27;;;;;;;;;;4945811;28;21069;-78
2023/03/01 04:07:41;;;;;;;13.57;9.52;;;;;;;;;;4928608;28;20035;-78
2023/03/01 04:10:08;;;;;;;10.43;7.93;;;;;;;;;;4916610;28;20062;-78
2023/03/01 04:12:34;;;;;;;19.48;11.32;;;;;;;;;;4936348;28;20249;-78
2023/03/01 04:15:01;;;;;;;31.95;12.65;;;;;;;;;;4933034;28;20043;-79
2023/03/01 04:17:28;;;;;;;22.88;12.98;;;;;;;;;;4920990;28;20046;-77
2023/03/01 04:19:54;;;;;;;14.23;9.55;;;;;;;;;;4918180;28;20047;-77
2023/03/01 04:22:20;;;;;;;14.70;9.90;;;;;;;;;;4929886;28;20047;-78
2023/03/01 04:24:46;;;;;;;18.00;10.95;;;;;;;;;;4918122;28;20511;-78
2023/03/01 04:27:12;;;;;;;17.38;11.35;;;;;;;;;;4934515;28;20031;-78
2023/03/01 04:29:38;;;;;;;17.23;10.73;;;;;;;;;;4932156;28;20054;-78
2023/03/01 04:32:04;;;;;;;17.90;11.32;;;;;;;;;;4933021;28;20042;-78
2023/03/01 04:34:30;;;;;;;15.55;9.55;;;;;;;;;;4933723;28;20530;-78
2023/03/01 04:36:57;;;;;;;38.65;10.50;;;;;;;;;;4928246;28;20126;-78
2023/03/01 04:39:23;;;;;;;12.50;8.75;;;;;;;;;;4908842;28;20658;-78
2023/03/01 04:41:49;;;;;;;77.75;10.43;;;;;;;;;;4924569;28;20034;-77
2023/03/01 04:44:15;;;;;;;100.40;10.23;;;;;;;;;;4916006;28;20504;-78
2023/03/01 04:46:41;;;;;;;174.00;12.95;;;;;;;;;;4924437;28;20126;-78
2023/03/01 04:49:07;;;;;;;78.32;12.77;;;;;;;;;;4927574;28;20492;-77
2023/03/01 04:51:33;;;;;;;156.60;15.40;;;;;;;;;;4903218;28;20126;-78
2023/03/01 04:54:00;;;;;;;14.98;9.98;;;;;;;;;;4922795;28;20046;-79
2023/03/01 04:56:26;;;;;;;15.10;10.90;;;;;;;;;;4925567;28;20118;-78
2023/03/01 04:58:54;;;;;;;18.05;10.82;;;;;;;;;;4909549;28;20047;-79
2023/03/01 05:01:21;;;;;;;18.63;10.68;;;;;;;;;;4924983;28;20038;-78
2023/03/01 05:03:49;;;;;;;13.68;10.18;;;;;;;;;;4911128;28;20153;-78
2023/03/01 05:06:15;;;;;;;16.38;10.15;;;;;;;;;;4923059;28;20042;-78
2023/03/01 05:08:42;;;;;;;15.10;9.73;;;;;;;;;;4914828;28;20051;-78
2023/03/01 05:11:09;;;;;;;15.82;10.52;;;;;;;;;;4926500;28;20047;-78
2023/03/01 05:13:35;;;;;;;17.08;11.00;;;;;;;;;;4910608;28;20129;-76
2023/03/01 05:16:03;;;;;;;16.02;10.30;;;;;;;;;;4902870;28;20452;-78
2023/03/01 05:18:30;;;;;;;13.48;9.20;;;;;;;;;;4917631;28;20046;-78
2023/03/01 05:21:03;;;;;;;13.82;9.95;;;;;;;;;;4917774;28;20065;-78
2023/03/01 05:23:30;;;;;;;18.20;11.20;;;;;;;;;;4918339;28;20043;-78
2023/03/01 05:25:59;;;;;;;12.77;10.02;;;;;;;;;;4919788;28;20054;-78
2023/03/01 05:28:25;;;;;;;13.82;9.80;;;;;;;;;;4925723;28;20153;-78
2023/03/01 05:30:52;;;;;;;23.25;10.23;;;;;;;;;;4938497;28;21316;-79
2023/03/01 05:33:18;;;;;;;17.23;9.95;;;;;;;;;;4924952;28;20058;-78
2023/03/01 05:35:45;;;;;;;19.13;11.13;;;;;;;;;;4923873;28;20133;-78
2023/03/01 05:38:15;;;;;;;16.08;10.98;;;;;;;;;;4931085;28;20051;-78
2023/03/01 05:40:45;;;;;;;21.92;11.70;;;;;;;;;;4938731;28;20043;-78
2023/03/01 05:43:12;;;;;;;18.30;11.85;;;;;;;;;;4938306;28;20046;-78
2023/03/01 05:45:38;;;;;;;19.05;12.50;;;;;;;;;;4929487;28;20106;-78
2023/03/01 05:48:05;;;;;;;18.98;12.43;;;;;;;;;;4913586;28;20081;-78
2023/03/01 05:50:36;;;;;;;19.55;12.57;;;;;;;;;;4916024;28;20062;-78
2023/03/01 05:53:05;;;;;;;17.35;12.15;;;;;;;;;;4924100;28;20133;-78
2023/03/01 05:55:31;;;;;;;19.30;11.95;;;;;;;;;;4909781;28;20050;-79
2023/03/01 05:58:05;;;;;;;22.95;12.13;;;;;;;;;;4939863;28;20047;-78
2023/03/01 06:00:31;;;;;;;;;;;;;;;;;;4932036;28;20215;-79
2023/03/01 06:02:58;;;;;;;20.88;12.95;;;;;;;;;;4909165;28;20220;-79
2023/03/01 06:05:24;;;;;;;20.85;12.60;;;;;;;;;;4929678;28;20145;-79
2023/03/01 06:07:51;;;;;;;19.63;12.55;;;;;;;;;;4915120;28;20074;-79
2023/03/01 06:10:19;;;;;;;17.55;11.82;;;;;;;;;;4930177;28;20042;-79
2023/03/01 06:12:45;;;;;;;17.98;11.95;;;;;;;;;;4912972;28;20110;-79
2023/03/01 06:15:13;;;;;;;16.73;11.05;;;;;;;;;;4926655;28;20050;-79
2023/03/01 06:17:40;;;;;;;20.00;12.65;;;;;;;;;;4930918;28;20050;-79
2023/03/01 06:20:14;;;;;;;16.38;11.55;;;;;;;;;;4948363;28;20198;-79
2023/03/01 06:22:41;;;;;;;17.08;11.88;;;;;;;;;;4931037;28;20484;-79
2023/03/01 06:25:08;;;;;;;15.65;11.30;;;;;;;;;;4918010;28;20047;-79
2023/03/01 06:27:34;;;;;;;16.52;11.38;;;;;;;;;;4931568;28;20125;-79
2023/03/01 06:30:00;;;;;;;15.00;10.73;;;;;;;;;;4918369;28;20053;-79
2023/03/01 06:32:30;;;;;;;15.38;10.95;;;;;;;;;;4947689;28;20074;-78
2023/03/01 06:34:58;;;;;;;15.25;11.05;;;;;;;;;;4931220;28;20073;-78
2023/03/01 06:37:24;;;;;;;31.50;11.80;;;;;;;;;;4929581;28;20046;-78
2023/03/01 06:39:51;;;;;;;19.75;12.68;;;;;;;;;;4928782;28;20102;-79
2023/03/01 06:42:17;;;;;;;31.00;14.13;;;;;;;;;;4930979;28;20051;-79
2023/03/01 06:44:44;;;;;;;18.73;13.65;;;;;;;;;;4932138;28;20074;-79
2023/03/01 06:47:10;;;;;;;21.02;13.63;;;;;;;;;;4915210;28;20050;-79
2023/03/01 06:49:36;;;;;;;19.90;12.57;;;;;;;;;;4924011;28;20828;-79
2023/03/01 06:52:02;;;;;;;17.58;12.20;;;;;;;;;;4927497;28;20054;-79
2023/03/01 06:54:28;;;;;;;23.65;13.60;;;;;;;;;;4916844;28;20165;-79
2023/03/01 06:56:54;;;;;;;16.80;11.60;;;;;;;;;;4940451;28;20054;-79
2023/03/01 06:59:20;;;;;;;18.30;13.50;;;;;;;;;;4915334;28;20507;-78
2023/03/01 07:01:47;;;;;;;19.45;13.00;;;;;;;;;;4914657;28;20043;-78
2023/03/01 07:04:13;;;;;;;14.90;11.23;;;;;;;;;;4924093;28;20042;-78
2023/03/01 07:06:40;;;;;;;16.02;11.85;;;;;;;;;;4915231;28;20045;-78
2023/03/01 07:09:06;;;;;;;15.68;11.27;;;;;;;;;;4911315;28;20043;-79
2023/03/01 07:11:32;;;;;;;14.23;11.80;;;;;;;;;;4918041;28;20078;-79
2023/03/01 07:13:59;;;;;;;22.23;13.85;;;;;;;;;;4910743;28;20047;-78
2023/03/01 07:16:25;;;;;;;23.50;15.68;;;;;;;;;;4918794;28;21501;-75
2023/03/01 07:18:52;;;;;;;22.73;14.65;;;;;;;;;;4919465;28;20055;-75
2023/03/01 07:21:18;;;;;;;23.40;15.40;;;;;;;;;;4893946;28;21978;-75
2023/03/01 07:23:44;;;;;;;23.52;15.48;;;;;;;;;;4924799;28;20038;-75
2023/03/01 07:26:10;;;;;;;32.75;17.98;;;;;;;;;;4924140;28;20173;-75
2023/03/01 07:28:38;;;;;;;31.98;19.30;;;;;;;;;;4922910;28;20146;-75
2023/03/01 07:31:04;;;;;;;31.88;21.10;;;;;;;;;;4905259;28;20077;-75
2023/03/01 07:33:30;;;;;;;47.30;25.27;;;;;;;;;;4919680;28;20059;-75
2023/03/01 07:36:00;;;;;;;45.25;23.90;;;;;;;;;;4908724;28;20061;-75
2023/03/01 07:38:26;;;;;;;39.35;24.38;;;;;;;;;;4908101;28;20047;-75
2023/03/01 07:40:52;;;;;;;41.83;25.08;;;;;;;;;;4892585;28;20077;-75
2023/03/01 07:43:20;;;;;;;41.70;24.63;;;;;;;;;;4917745;28;20126;-75
2023/03/01 07:45:46;;;;;;;36.85;23.50;;;;;;;;;;4919010;28;20963;-75
2023/03/01 07:48:12;;;;;;;38.25;24.08;;;;;;;;;;4920059;28;20053;-75
2023/03/01 07:50:38;;;;;;;37.33;22.05;;;;;;;;;;4920281;28;20094;-75
2023/03/01 07:53:04;;;;;;;44.78;24.77;;;;;;;;;;4918506;28;20042;-75
2023/03/01 07:55:30;;;;;;;39.00;25.17;;;;;;;;;;4906746;28;20063;-75
2023/03/01 07:57:56;;;;;;;42.40;24.98;;;;;;;;;;4919766;28;20204;-75
2023/03/01 08:00:23;;;;;;;43.13;25.55;;;;;;;;;;4909594;28;20086;-75
2023/03/01 08:02:49;;;;;;;43.92;26.13;;;;;;;;;;4910617;28;20050;-75
2023/03/01 08:05:15;;;;;;;48.67;29.80;;;;;;;;;;4918244;28;20074;-75
2023/03/01 08:07:41;;;;;;;45.83;27.45;;;;;;;;;;4913357;28;20054;-75
2023/03/01 08:10:07;;;;;;;48.03;28.90;;;;;;;;;;4935507;28;20047;-75
2023/03/01 08:12:33;;;;;;;51.55;30.42;;;;;;;;;;4910680;28;20093;-75
2023/03/01 08:14:59;;;;;;;50.33;30.65;;;;;;;;;;4920323;28;20130;-75
2023/03/01 08:17:25;;;;;;;51.85;30.08;;;;;;;;;;4895096;28;20046;-76
2023/03/01 08:19:52;;;;;;;54.92;33.13;;;;;;;;;;4920772;28;20086;-76
2023/03/01 08:22:18;;;;;;;65.72;37.40;;;;;;;;;;4910577;28;20130;-76
2023/03/01 08:24:44;;;;;;;67.82;38.13;;;;;;;;;;4905269;28;20047;-76
2023/03/01 08:27:11;;;;;;;74.55;40.47;;;;;;;;;;4920138;28;20051;-76
2023/03/01 08:29:38;;;;;;;70.78;39.97;;;;;;;;;;4919974;28;20149;-76
2023/03/01 08:32:04;;;;;;;76.15;42.45;;;;;;;;;;4920514;28;20053;-76
2023/03/01 08:34:31;;;;;;;75.72;43.53;;;;;;;;;;4886126;28;20137;-76
2023/03/01 08:36:57;;;;;;;71.47;42.17;;;;;;;;;;4920887;28;20130;-76
2023/03/01 08:39:23;;;;;;;71.93;40.10;;;;;;;;;;4913207;28;20523;-76
2023/03/01 08:41:49;;;;;;;73.35;41.55;;;;;;;;;;4923958;28;20042;-76
2023/03/01 08:44:20;;;;;;;71.50;41.45;;;;;;;;;;4909104;28;20639;-76
2023/03/01 08:46:47;;;;;;;74.65;43.38;;;;;;;;;;4893232;28;20046;-75
2023/03/01 08:49:17;;;;;;;76.00;42.03;;;;;;;;;;4922026;28;20050;-75
2023/03/01 08:51:44;;;;;;;78.20;44.20;;;;;;;;;;4912926;28;22198;-75
2023/03/01 08:54:12;;;;;;;79.10;43.35;;;;;;;;;;4924819;28;20071;-75
2023/03/01 08:56:38;;;;;;;68.47;43.47;;;;;;;;;;4913889;28;20153;-76
2023/03/01 08:59:04;;;;;;;73.95;44.53;;;;;;;;;;4894617;28;20915;-76
2023/03/01 09:01:30;;;;;;;71.90;43.72;;;;;;;;;;4923729;28;20464;-75
2023/03/01 09:03:57;;;;;;;75.85;44.70;;;;;;;;;;4912073;28;20066;-75
2023/03/01 09:06:23;;;;;;;79.15;44.83;;;;;;;;;;4912039;28;20050;-75
2023/03/01 09:08:50;;;;;;;74.13;44.65;;;;;;;;;;4896943;28;20173;-76
2023/03/01 09:11:18;;;;;;;69.10;43.33;;;;;;;;;;4905295;28;20054;-76
2023/03/01 09:13:44;;;;;;;76.97;45.63;;;;;;;;;;4928383;28;20047;-76
2023/03/01 09:16:12;;;;;;;74.00;44.80;;;;;;;;;;4909461;28;20173;-76
2023/03/01 09:18:38;;;;;;;68.82;43.08;;;;;;;;;;4920909;28;20047;-77
2023/03/01 09:21:15;;;;;;;69.05;42.97;;;;;;;;;;4922285;28;20047;-77
2023/03/01 09:23:42;;;;;;;71.00;42.58;;;;;;;;;;4906809;28;20098;-77
2023/03/01 09:26:09;;;;;;;64.22;40.05;;;;;;;;;;4907695;28;20043;-77
2023/03/01 09:28:40;;;;;;;66.10;42.45;;;;;;;;;;4913101;28;20098;-77
2023/03/01 09:31:06;;;;;;;66.93;42.03;;;;;;;;;;4912074;28;20165;-77
2023/03/01 09:33:33;;;;;;;72.35;41.63;;;;;;;;;;4924487;28;20106;-77
2023/03/01 09:36:00;;;;;;;63.58;40.70;;;;;;;;;;4923364;28;20043;-76
2023/03/01 09:38:27;;;;;;;60.28;40.25;;;;;;;;;;4924414;28;20051;-76
2023/03/01 09:40:53;;;;;;;66.13;40.47;;;;;;;;;;4919894;28;20256;-76
2023/03/01 09:43:24;;;;;;;61.85;38.75;;;;;;;;;;4937751;28;20050;-76
2023/03/01 09:45:51;;;;;;;54.33;36.65;;;;;;;;;;4921579;28;20165;-76
2023/03/01 09:48:21;;;;;;;58.65;36.28;;;;;;;;;;4923294;28;20109;-76
2023/03/01 09:50:47;;;;;;;56.08;36.65;;;;;;;;;;4907976;28;21141;-76
2023/03/01 09:53:15;;;;;;;59.17;37.75;;;;;;;;;;4909767;28;20138;-76
2023/03/01 09:55:41;;;;;;;54.92;36.03;;;;;;;;;;4919759;28;22105;-75
2023/03/01 09:58:13;;;;;;;49.53;30.90;;;;;;;;;;4906943;28;20055;-75
2023/03/01 10:00:42;;;;;;;54.30;34.83;;;;;;;;;;4920554;28;20447;-75
2023/03/01 10:03:37;;;;;;;51.88;33.45;;;;;;;;;;4906675;28;20193;-75
2023/03/01 10:06:11;;;;;;;55.55;35.60;;;;;;;;;;4905737;28;21093;-76
2023/03/01 10:08:38;;;;;;;53.92;34.00;;;;;;;;;;4918611;28;21007;-74
2023/03/01 10:11:06;;;;;;;46.13;31.63;;;;;;;;;;4902263;28;20133;-74
2023/03/01 10:13:53;;;;;;;49.08;32.13;;;;;;;;;;4919983;28;20062;-75
2023/03/01 10:16:29;;;;;;;43.95;28.90;;;;;;;;;;4921558;28;20078;-76
2023/03/01 10:18:58;;;;;;;40.38;27.75;;;;;;;;;;4923424;28;20054;-75
2023/03/01 10:21:27;;;;;;;40.03;28.85;;;;;;;;;;4907628;28;20082;-75
2023/03/01 10:23:54;;;;;;;38.95;25.95;;;;;;;;;;4906734;28;20086;-75
2023/03/01 10:26:29;;;;;;;39.67;25.83;;;;;;;;;;4924415;28;20047;-75
2023/03/01 10:28:58;;;;;;;36.58;22.75;;;;;;;;;;4908360;28;20163;-74
2023/03/01 10:31:27;;;;;;;36.15;24.60;;;;;;;;;;4915306;28;21872;-74
2023/03/01 10:33:56;;;;;;;39.10;23.65;;;;;;;;;;4922035;28;20046;-75
2023/03/01 10:36:22;;;;;;;34.95;23.88;;;;;;;;;;4918774;28;20047;-75
2023/03/01 10:38:48;;;;;;;35.25;24.33;;;;;;;;;;4918427;28;20074;-75
2023/03/01 10:41:14;;;;;;;37.90;24.92;;;;;;;;;;4902536;28;20074;-75
2023/03/01 10:43:51;;;;;;;40.42;26.20;;;;;;;;;;4919514;28;20038;-75
2023/03/01 10:46:30;;;;;;;39.15;23.45;;;;;;;;;;4910607;28;20534;-75
2023/03/01 10:49:14;;;;;;;33.92;22.90;;;;;;;;;;4918051;28;20168;-75
2023/03/01 10:51:41;;;;;;;31.10;21.10;;;;;;;;;;4921151;28;20043;-75
2023/03/01 10:54:22;;;;;;;32.30;20.60;;;;;;;;;;4920138;28;20141;-75
2023/03/01 10:56:56;;;;;;;31.65;20.73;;;;;;;;;;4907267;28;20043;-76
2023/03/01 10:59:25;;;;;;;23.88;16.13;;;;;;;;;;4936396;28;20109;-75
2023/03/01 11:02:04;;;;;;;24.90;17.08;;;;;;;;;;4921201;28;20054;-76
2023/03/01 11:04:30;;;;;;;25.00;17.45;;;;;;;;;;4925077;28;20085;-76
2023/03/01 11:07:00;;;;;;;19.10;14.50;;;;;;;;;;4906259;28;20407;-76
2023/03/01 11:09:27;;;;;;;19.80;14.82;;;;;;;;;;4917805;28;20050;-76
2023/03/01 11:11:57;;;;;;;22.27;15.75;;;;;;;;;;4894101;28;20074;-77
2023/03/01 11:14:24;;;;;;;20.98;16.73;;;;;;;;;;4907235;28;20047;-76
2023/03/01 11:17:05;;;;;;;18.13;14.68;;;;;;;;;;4901979;28;21736;-76
2023/03/01 11:19:31;;;;;;;18.58;14.15;;;;;;;;;;4917019;28;20049;-77
2023/03/01 11:22:02;;;;;;;18.65;14.00;;;;;;;;;;4934672;28;20045;-76
2023/03/01 11:24:38;;;;;;;20.48;14.35;;;;;;;;;;4903379;28;20157;-76
2023/03/01 11:27:09;;;;;;;19.50;15.23;;;;;;;;;;4901824;28;21722;-76
2023/03/01 11:29:38;;;;;;;21.98;14.85;;;;;;;;;;4903230;28;20133;-77
2023/03/01 11:32:07;;;;;;;18.98;14.75;;;;;;;;;;4907118;28;20050;-76
2023/03/01 11:34:43;;;;;;;20.08;15.63;;;;;;;;;;4902815;28;20050;-76
2023/03/01 11:37:16;;;;;;;25.90;17.75;;;;;;;;;;4917935;28;20848;-76
2023/03/01 11:40:02;;;;;;;20.80;16.02;;;;;;;;;;4911491;28;20703;-76
2023/03/01 11:42:42;;;;;;;19.55;16.45;;;;;;;;;;4914144;28;20103;-76
2023/03/01 11:45:10;;;;;;;21.40;16.70;;;;;;;;;;4917331;28;20435;-76
2023/03/01 11:48:03;;;;;;;21.38;17.48;;;;;;;;;;4915917;28;20182;-76
2023/03/01 11:50:36;;;;;;;21.30;14.52;;;;;;;;;;4914460;28;20058;-75
2023/03/01 11:53:08;;;;;;;17.08;14.18;;;;;;;;;;4918323;28;20079;-75
2023/03/01 11:55:34;;;;;;;18.45;14.85;;;;;;;;;;4907370;28;20086;-75
2023/03/01 11:58:07;;;;;;;19.13;15.30;;;;;;;;;;4926626;28;20102;-75
2023/03/01 12:00:42;;;;;;;20.42;15.38;;;;;;;;;;4922678;28;20046;-75
2023/03/01 12:03:24;;;;;;;18.52;14.00;;;;;;;;;;4923898;28;20136;-75
2023/03/01 12:06:09;;;;;;;15.25;13.27;;;;;;;;;;4915452;28;20047;-75
2023/03/01 12:08:54;;;;;;;15.57;12.25;;;;;;;;;;4939251;28;20157;-75
2023/03/01 12:11:23;;;;;;;14.18;12.10;;;;;;;;;;4923172;28;20051;-75
2023/03/01 12:14:08;;;;;;;13.55;11.80;;;;;;;;;;4926815;28;20046;-75
2023/03/01 12:16:47;;;;;;;14.27;11.27;;;;;;;;;;4933961;28;20049;-76
2023/03/01 12:19:21;;;;;;;14.00;10.60;;;;;;;;;;4926294;28;20062;-75
2023/03/01 12:21:47;;;;;;;;;;;;;;;;;;4927343;28;20054;-76
2023/03/01 12:24:13;;;;;;;14.90;9.93;;;;;;;;;;4910537;28;19922;-76
2023/03/01 12:26:53;;;;;;;11.65;10.20;;;;;;;;;;4926712;28;20074;-76
2023/03/01 12:29:38;;;;;;;12.55;9.95;;;;;;;;;;4926275;28;20065;-75
2023/03/01 12:32:17;;;;;;;11.52;10.32;;;;;;;;;;4918798;28;20047;-76
2023/03/01 12:34:50;;;;;;;9.85;8.45;;;;;;;;;;4926883;28;20050;-76
2023/03/01 12:37:39;;;;;;;9.32;8.10;;;;;;;;;;4927096;28;20039;-75
2023/03/01 12:40:20;;;;;;;10.23;8.27;;;;;;;;;;4914633;28;20054;-76
2023/03/01 12:43:08;;;;;;;14.15;9.02;;;;;;;;;;4925421;28;20461;-76
2023/03/01 12:45:53;;;;;;;12.07;9.15;;;;;;;;;;4925111;28;20057;-75
2023/03/01 12:48:24;;;;;;;9.77;8.75;;;;;;;;;;4912241;28;20042;-76
2023/03/01 12:50:56;;;;;;;37.83;12.25;;;;;;;;;;4924759;28;20130;-76
2023/03/01 12:53:28;;;;;;;9.75;8.35;;;;;;;;;;4911857;28;20598;-76
2023/03/01 12:55:56;;;;;;;11.70;8.40;;;;;;;;;;4925385;28;20415;-76
2023/03/01 12:58:29;;;;;;;12.80;9.43;;;;;;;;;;4926796;28;20050;-76
2023/03/01 13:01:15;;;;;;;14.80;9.40;;;;;;;;;;4917527;28;22059;-75
2023/03/01 13:03:41;;;;;;;11.88;9.30;;;;;;;;;;4925841;28;20049;-75
2023/03/01 13:06:19;;;;;;;14.00;11.10;;;;;;;;;;4925676;28;20074;-76
2023/03/01 13:09:04;;;;;;;15.15;9.93;;;;;;;;;;4907952;28;20575;-75
2023/03/01 13:11:30;;;;;;;10.77;9.68;;;;;;;;;;4927152;28;20071;-75
2023/03/01 13:14:16;;;;;;;13.90;10.88;;;;;;;;;;4925748;28;20499;-76
2023/03/01 13:16:44;;;;;;;13.40;10.50;;;;;;;;;;4925091;28;20043;-76
2023/03/01 13:19:15;;;;;;;13.63;10.70;;;;;;;;;;4927834;28;20503;-74
2023/03/01 13:21:41;;;;;;;12.70;10.30;;;;;;;;;;4919216;28;20081;-74
2023/03/01 13:24:26;;;;;;;13.63;10.13;;;;;;;;;;4906523;28;20039;-73
2023/03/01 13:27:05;;;;;;;12.00;10.25;;;;;;;;;;4909997;28;21682;-74
2023/03/01 13:29:43;;;;;;;12.40;10.45;;;;;;;;;;4925064;28;20042;-74
2023/03/01 13:32:19;;;;;;;13.00;9.85;;;;;;;;;;4929551;28;20082;-74
2023/03/01 13:34:49;;;;;;;13.27;10.10;;;;;;;;;;4924080;28;20165;-74
2023/03/01 13:37:20;;;;;;;12.25;9.88;;;;;;;;;;4930318;28;20058;-75
2023/03/01 13:39:47;;;;;;;13.35;10.98;;;;;;;;;;4924388;28;20047;-75
2023/03/01 13:42:33;;;;;;;14.55;11.00;;;;;;;;;;4924244;28;20054;-75
2023/03/01 13:44:59;;;;;;;13.52;11.00;;;;;;;;;;4924111;28;20074;-75
2023/03/01 13:47:27;;;;;;;19.58;12.65;;;;;;;;;;4923649;28;20253;-75
2023/03/01 13:49:59;;;;;;;15.68;11.90;;;;;;;;;;4910742;28;20042;-74
2023/03/01 13:52:44;;;;;;;15.77;12.48;;;;;;;;;;4910101;28;20113;-75
2023/03/01 13:55:16;;;;;;;15.27;12.63;;;;;;;;;;4923808;28;20476;-75
2023/03/01 13:57:45;;;;;;;14.77;12.32;;;;;;;;;;4907469;28;20492;-75
2023/03/01 14:00:43;;;;;;;14.95;11.98;;;;;;;;;;4926740;28;20099;-75
2023/03/01 14:03:09;;;;;;;15.88;13.00;;;;;;;;;;4877129;28;20054;-75
2023/03/01 14:05:36;;;;;;;15.68;12.68;;;;;;;;;;4912005;28;20040;-75
2023/03/01 14:08:03;;;;;;;16.70;12.38;;;;;;;;;;4912268;28;20050;-73
2023/03/01 14:10:38;;;;;;;14.95;12.57;;;;;;;;;;4925209;28;20114;-73
2023/03/01 14:13:13;;;;;;;15.10;12.32;;;;;;;;;;4923558;28;20039;-74
2023/03/01 14:15:55;;;;;;;15.15;12.43;;;;;;;;;;4922622;28;20059;-74
2023/03/01 14:18:27;;;;;;;16.55;12.65;;;;;;;;;;4923744;28;20105;-75
2023/03/01 14:20:53;;;;;;;16.50;12.75;;;;;;;;;;4942033;28;20180;-75
2023/03/01 14:23:21;;;;;;;17.08;13.63;;;;;;;;;;4925124;28;20143;-75
2023/03/01 14:25:51;;;;;;;15.63;13.07;;;;;;;;;;4926085;28;20472;-76
2023/03/01 14:28:18;;;;;;;18.60;13.68;;;;;;;;;;4926521;28;20042;-75
2023/03/01 14:30:45;;;;;;;18.15;14.13;;;;;;;;;;4922539;28;20148;-75
2023/03/01 14:33:25;;;;;;;17.63;14.25;;;;;;;;;;4927229;28;20055;-74
2023/03/01 14:36:05;;;;;;;19.85;14.65;;;;;;;;;;4915992;28;20050;-75